Mahtomedi, Minnesota
Current Conditions -  °F | °C
As of 3:11 AM on Friday 31 Oct 2014 (Local Time) from K21D Reporting Station
Clear Clear  
Wind Chill: 21°   Ceiling: Unl
Heat Index: 30°   Visibility: 10mi
Dew Point: 19°   Wind: 10mph
Humidity: 64%   Direction: 350°N
Pressure: 30.44"   Gusts: 20mph
Location:  45.051°N, 92.9612°W
Report Text: K21D 310811Z AUTO 35009G17KT 10SM CLR M01/M07 A3044 RMK AO2
Loading
Personal Weather Stations






























Interactive Weather Map
Tropical Storm Tracking
New forecast layout! Learn more

10-Day Weather Forecast

Advertisements
Track Severe Weather on mobile